Time;durP1;ratioP1;P1;durP2;ratioP2;P2;SDS_P1;SDS_P2;PMS_P1;PMS_P2;Temp;Humidity;BMP_temperature;BMP_pressure;BME280_temperature;BME280_humidity;BME280_pressure;Samples;Min_cycle;Max_cycle;Signal;HPM_P1;HPM_P2
2021/03/09 00:00:07;;;;;;;110.43;42.80;;;;;;;-2.83;67.76;98875.51;124641;1115;23109;-80
2021/03/09 00:02:55;;;;;;;;;;;;;;;-2.84;66.94;98873.82;124659;1116;23033;-82
2021/03/09 00:05:21;;;;;;;109.70;41.10;;;;;;;-2.89;67.85;98874.25;124729;1114;21692;-80
2021/03/09 00:07:48;;;;;;;120.07;43.33;;;;;;;-2.94;67.88;98873.89;124769;1115;23043;-82
2021/03/09 00:10:15;;;;;;;115.10;40.57;;;;;;;-2.96;67.11;98875.84;124682;1115;23094;-82
2021/03/09 00:12:42;;;;;;;113.07;43.73;;;;;;;-3.00;67.99;98874.47;124658;1115;23950;-81
2021/03/09 00:15:10;;;;;;;103.00;39.80;;;;;;;-3.04;67.92;98878.42;124664;1115;28512;-81
2021/03/09 00:17:37;;;;;;;111.83;41.10;;;;;;;-3.06;68.45;98875.07;124960;1115;23034;-81
2021/03/09 00:20:04;;;;;;;103.37;38.97;;;;;;;-3.03;68.62;98880.08;124676;1115;23052;-82
2021/03/09 00:22:31;;;;;;;94.53;37.00;;;;;;;-3.03;67.14;98876.59;124727;1115;23099;-81
2021/03/09 00:24:58;;;;;;;89.90;36.20;;;;;;;-3.06;67.62;98869.74;124739;1113;27444;-82
2021/03/09 00:27:25;;;;;;;89.60;35.43;;;;;;;-3.04;67.17;98865.10;124698;1115;23083;-82
2021/03/09 00:29:52;;;;;;;102.20;35.87;;;;;;;-3.03;67.96;98872.09;124680;1115;23106;-81
2021/03/09 00:32:19;;;;;;;90.43;34.93;;;;;;;-3.03;66.85;98865.93;124722;1115;23092;-81
2021/03/09 00:34:45;;;;;;;89.63;32.90;;;;;;;-3.04;67.48;98867.77;124714;1115;23095;-81
2021/03/09 00:37:12;;;;;;;88.83;34.73;;;;;;;-3.03;66.82;98866.77;124773;1115;23096;-82
2021/03/09 00:39:38;;;;;;;96.90;35.90;;;;;;;-3.01;68.23;98870.14;124645;1115;23248;-82
2021/03/09 00:42:05;;;;;;;90.20;35.90;;;;;;;-3.02;66.71;98875.61;124696;1114;26243;-81
2021/03/09 00:44:32;;;;;;;91.20;34.07;;;;;;;-3.04;67.17;98875.76;124618;1115;23043;-81
2021/03/09 00:46:59;;;;;;;95.00;35.43;;;;;;;-3.08;67.84;98879.69;124687;1116;23153;-81
2021/03/09 00:49:25;;;;;;;105.63;36.10;;;;;;;-3.12;67.20;98873.81;124678;1114;27323;-81
2021/03/09 00:51:52;;;;;;;96.90;37.10;;;;;;;-3.13;68.13;98872.16;124753;1115;23082;-81
2021/03/09 00:54:19;;;;;;;98.10;35.90;;;;;;;-3.13;68.18;98877.48;124659;1115;26465;-81
2021/03/09 00:56:45;;;;;;;105.33;37.60;;;;;;;-3.16;68.03;98879.59;124776;1115;23138;-81
2021/03/09 00:59:12;;;;;;;87.83;36.27;;;;;;;-3.17;67.77;98872.58;124672;1115;23097;-81
2021/03/09 01:01:39;;;;;;;95.07;36.13;;;;;;;-3.18;66.86;98874.41;124646;1115;23238;-81
2021/03/09 01:04:05;;;;;;;91.37;35.73;;;;;;;-3.21;68.12;98866.70;124692;1116;23033;-81
2021/03/09 01:06:32;;;;;;;94.13;35.97;;;;;;;-3.25;67.00;98868.00;124745;1114;23028;-81
2021/03/09 01:08:59;;;;;;;81.90;33.87;;;;;;;-3.28;67.68;98870.95;124418;1115;23773;-81
2021/03/09 01:11:26;;;;;;;96.03;36.40;;;;;;;-3.32;66.73;98873.06;124734;1115;23105;-82
2021/03/09 01:13:52;;;;;;;100.27;37.77;;;;;;;-3.35;68.02;98869.86;124836;1113;23105;-81
2021/03/09 01:16:19;;;;;;;104.70;39.93;;;;;;;-3.33;68.04;98878.53;124709;1115;23013;-82
2021/03/09 01:18:46;;;;;;;91.93;36.03;;;;;;;-3.36;68.01;98870.86;124710;1115;23041;-81
2021/03/09 01:21:12;;;;;;;93.10;36.90;;;;;;;-3.40;67.47;98877.44;124721;1115;23806;-81
2021/03/09 01:23:39;;;;;;;88.47;34.97;;;;;;;-3.42;67.14;98861.61;124778;1115;23039;-81
2021/03/09 01:26:05;;;;;;;103.47;39.40;;;;;;;-3.47;68.57;98866.52;124628;1115;23025;-81
2021/03/09 01:28:32;;;;;;;91.63;38.07;;;;;;;-3.53;67.38;98867.13;124602;1115;23039;-81
2021/03/09 01:30:58;;;;;;;100.77;38.20;;;;;;;-3.58;68.82;98861.39;124656;1113;23093;-82
2021/03/09 01:33:25;;;;;;;102.00;38.80;;;;;;;-3.60;68.77;98858.03;124759;1115;23099;-81
2021/03/09 01:35:51;;;;;;;103.83;39.37;;;;;;;-3.62;69.19;98852.85;124766;1114;23032;-82
2021/03/09 01:38:18;;;;;;;93.93;37.47;;;;;;;-3.66;69.15;98856.80;124725;1115;23276;-81
2021/03/09 01:40:45;;;;;;;97.93;38.33;;;;;;;-3.70;67.89;98852.73;124737;1115;23049;-80
2021/03/09 01:43:12;;;;;;;109.37;38.13;;;;;;;-3.74;68.02;98854.00;124453;1115;23076;-80
2021/03/09 01:45:38;;;;;;;91.37;36.13;;;;;;;-3.73;68.51;98858.36;124658;1115;23019;-80
2021/03/09 01:48:07;;;;;;;111.10;37.33;;;;;;;-3.71;68.77;98853.73;124850;1115;23075;-80
2021/03/09 01:50:36;;;;;;;102.65;36.93;;;;;;;-3.66;69.45;98859.46;124711;1114;23020;-79
2021/03/09 01:53:05;;;;;;;89.27;34.23;;;;;;;-3.68;68.67;98854.27;124813;1115;25122;-80
2021/03/09 01:55:33;;;;;;;90.20;35.15;;;;;;;-3.68;68.42;98853.45;124710;1115;27374;-80
2021/03/09 01:58:05;;;;;;;92.73;33.57;;;;;;;-3.73;68.32;98859.19;124732;1116;23179;-81
2021/03/09 02:00:32;;;;;;;92.20;35.63;;;;;;;-3.76;67.98;98846.16;124815;1114;23041;-80
2021/03/09 02:02:59;;;;;;;94.43;35.07;;;;;;;-3.74;68.64;98856.67;124663;1114;24537;-81
2021/03/09 02:05:27;;;;;;;96.20;37.37;;;;;;;-3.75;68.54;98849.66;124721;1115;23227;-82
2021/03/09 02:07:54;;;;;;;90.83;34.87;;;;;;;-3.76;68.68;98847.99;124732;1115;23034;-81
2021/03/09 02:10:21;;;;;;;85.57;34.50;;;;;;;-3.80;68.86;98851.94;124713;1115;27668;-81
2021/03/09 02:13:27;;;;;;;90.00;34.90;;;;;;;-3.83;68.88;98843.23;124748;1115;23092;-81
2021/03/09 02:16:05;;;;;;;98.10;35.10;;;;;;;-3.86;69.34;98845.34;124662;1115;23112;-81
2021/03/09 02:18:57;;;;;;;90.83;34.07;;;;;;;-3.90;68.92;98835.98;124619;1114;23044;-81
2021/03/09 02:21:26;;;;;;;87.87;31.40;;;;;;;-3.94;69.05;98838.09;124659;1115;23854;-81
2021/03/09 02:23:59;;;;;;;84.95;33.63;;;;;;;-3.98;68.53;98835.84;124682;1115;26067;-81
2021/03/09 02:27:07;;;;;;;72.50;30.50;;;;;;;-3.99;68.99;98842.16;124719;1116;23034;-81
2021/03/09 02:29:40;;;;;;;77.53;31.48;;;;;;;-4.03;68.42;98842.44;124666;1114;23199;-80
2021/03/09 02:32:14;;;;;;;88.07;32.70;;;;;;;-4.06;69.07;98847.20;124719;1115;23192;-80
2021/03/09 02:34:53;;;;;;;80.93;30.33;;;;;;;-4.08;69.00;98846.52;124597;1114;23099;-80
2021/03/09 02:37:22;;;;;;;81.82;31.23;;;;;;;-4.09;68.97;98844.82;124655;1114;23116;-81
2021/03/09 02:39:50;;;;;;;83.47;30.37;;;;;;;-4.13;69.23;98848.75;124711;1114;23840;-81
2021/03/09 02:42:24;;;;;;;82.73;33.13;;;;;;;-4.14;68.83;98844.41;124767;1115;23086;-81
2021/03/09 02:45:02;;;;;;;78.47;28.77;;;;;;;-4.12;69.47;98847.79;124656;1114;23090;-81
2021/03/09 02:47:31;;;;;;;79.27;30.87;;;;;;;-4.14;69.42;98855.04;124729;1115;23130;-81
2021/03/09 02:49:59;;;;;;;;;;;;;;;-4.21;69.44;98854.79;124739;1115;23027;-81
2021/03/09 02:52:28;;;;;;;83.77;29.33;;;;;;;-4.29;69.76;98855.48;124706;1115;21553;-81
2021/03/09 02:54:56;;;;;;;86.10;32.42;;;;;;;-4.28;70.14;98856.34;124726;1114;23090;-80
2021/03/09 02:57:24;;;;;;;90.83;32.53;;;;;;;-4.29;70.27;98850.16;124705;1115;23037;-80
2021/03/09 02:59:51;;;;;;;79.50;33.13;;;;;;;-4.22;70.39;98863.73;124697;1113;26466;-80
2021/03/09 03:02:19;;;;;;;91.97;32.53;;;;;;;-4.21;70.80;98854.79;124693;1115;24678;-81
2021/03/09 03:04:49;;;;;;;80.17;32.20;;;;;;;-4.25;70.53;98861.35;124688;1115;23043;-81
2021/03/09 03:07:18;;;;;;;82.30;31.37;;;;;;;-4.24;70.96;98866.53;124937;1113;23105;-79
2021/03/09 03:09:46;;;;;;;78.60;29.95;;;;;;;-4.25;70.91;98862.22;124778;1114;23245;-80
2021/03/09 03:12:14;;;;;;;73.70;27.47;;;;;;;-4.25;70.58;98861.35;124730;1114;24685;-81
2021/03/09 03:14:42;;;;;;;68.13;25.57;;;;;;;-4.26;70.57;98860.52;124643;1114;26434;-81
2021/03/09 03:17:12;;;;;;;83.50;26.50;;;;;;;-4.26;69.82;98859.69;124641;1115;23037;-80
2021/03/09 03:19:41;;;;;;;72.40;27.07;;;;;;;-4.24;70.44;98860.38;124661;1115;26582;-80
2021/03/09 03:22:10;;;;;;;68.40;26.93;;;;;;;-4.27;70.14;98861.48;124785;1115;26582;-80
2021/03/09 03:24:37;;;;;;;71.57;24.93;;;;;;;-4.31;70.08;98860.09;124673;1115;23102;-80
2021/03/09 03:27:06;;;;;;;74.07;29.23;;;;;;;-4.29;70.24;98865.28;124465;1114;23010;-80
2021/03/09 03:29:33;;;;;;;88.97;32.13;;;;;;;-4.29;70.16;98862.62;124558;1113;23111;-80
2021/03/09 03:32:00;;;;;;;82.73;31.63;;;;;;;-4.29;70.22;98858.13;124715;1115;23168;-81
2021/03/09 03:34:27;;;;;;;76.67;27.93;;;;;;;-4.27;70.01;98871.30;124583;1113;23129;-83
2021/03/09 03:36:53;;;;;;;79.07;30.50;;;;;;;-4.27;70.36;98864.14;124420;1115;23042;-82
2021/03/09 03:39:20;;;;;;;79.13;29.83;;;;;;;-4.25;70.25;98864.87;124358;1116;23046;-81
2021/03/09 03:41:47;;;;;;;83.10;31.10;;;;;;;-4.27;70.00;98861.48;124432;1116;23090;-81
2021/03/09 03:44:14;;;;;;;84.07;35.80;;;;;;;-4.29;69.67;98865.28;124342;1116;23045;-81
2021/03/09 03:46:41;;;;;;;94.50;35.70;;;;;;;-4.34;70.92;98867.52;124381;1116;23083;-81
2021/03/09 03:49:09;;;;;;;104.87;38.73;;;;;;;-4.36;70.69;98867.66;124412;1114;27763;-83
2021/03/09 03:51:41;;;;;;;87.03;32.37;;;;;;;-4.38;70.79;98874.94;124381;1116;23107;-81
2021/03/09 03:54:20;;;;;;;88.80;34.43;;;;;;;-4.38;70.39;98872.27;124390;1115;23038;-82
2021/03/09 03:56:50;;;;;;;94.80;32.87;;;;;;;-4.43;70.84;98874.50;124385;1115;23054;-82
2021/03/09 03:59:29;;;;;;;87.97;33.73;;;;;;;-4.44;70.84;98878.99;124469;1115;23242;-83
2021/03/09 04:02:00;;;;;;;82.00;33.33;;;;;;;-4.49;70.41;98875.91;124354;1115;23035;-82
2021/03/09 04:04:28;;;;;;;78.00;30.60;;;;;;;-4.49;70.67;98873.25;124353;1115;23245;-82
2021/03/09 04:06:55;;;;;;;79.45;29.25;;;;;;;-4.55;70.71;98865.84;124387;1114;23023;-82
2021/03/09 04:09:24;;;;;;;64.57;27.30;;;;;;;-4.53;71.04;98876.31;124357;1115;23014;-82
2021/03/09 04:11:51;;;;;;;;;;;;;;;-4.54;70.85;98875.48;124435;1116;23091;-80
2021/03/09 04:14:19;;;;;;;71.20;26.73;;;;;;;-4.55;70.37;98878.27;124410;1114;21551;-82
2021/03/09 04:16:50;;;;;;;80.83;28.10;;;;;;;-4.58;70.76;98868.77;124317;1115;26421;-81
2021/03/09 04:19:17;;;;;;;85.57;27.70;;;;;;;-4.59;70.38;98875.05;124377;1116;23046;-82
2021/03/09 04:21:46;;;;;;;79.70;30.05;;;;;;;-4.60;70.36;98870.73;124398;1115;23046;-80
2021/03/09 04:24:15;;;;;;;66.90;27.50;;;;;;;-4.66;70.03;98865.95;124384;1116;23202;-80
2021/03/09 04:26:43;;;;;;;68.60;28.13;;;;;;;-4.69;70.14;98877.71;124437;1116;23000;-82
2021/03/09 04:29:11;;;;;;;73.97;27.13;;;;;;;-4.68;70.30;98865.26;124484;1114;24570;-85
2021/03/09 04:31:40;;;;;;;75.90;27.77;;;;;;;-4.68;70.36;98867.91;124425;1116;23245;-81
2021/03/09 04:34:08;;;;;;;78.70;28.33;;;;;;;-4.72;70.12;98877.14;124451;1116;23049;-82
2021/03/09 04:36:35;;;;;;;69.53;28.00;;;;;;;-4.75;70.92;98880.90;124348;1116;24840;-83
2021/03/09 04:39:05;;;;;;;73.40;27.70;;;;;;;-4.81;71.44;98879.64;124448;1116;24673;-82
2021/03/09 04:41:33;;;;;;;62.43;23.52;;;;;;;-4.80;71.70;98880.47;124380;1115;23093;-80
2021/03/09 04:44:00;;;;;;;63.07;24.10;;;;;;;-4.81;71.47;98886.78;124434;1116;26421;-81
2021/03/09 04:46:28;;;;;;;54.90;21.10;;;;;;;-4.85;71.41;98878.24;124498;1116;23034;-80
2021/03/09 04:48:55;;;;;;;57.77;21.57;;;;;;;-4.86;71.45;98875.72;124676;1115;23102;-80
2021/03/09 04:51:24;;;;;;;55.90;21.77;;;;;;;-4.86;71.38;98886.34;124715;1115;26427;-80
2021/03/09 04:53:52;;;;;;;55.73;21.10;;;;;;;-4.89;71.36;98890.09;124722;1116;24054;-80
2021/03/09 04:56:18;;;;;;;47.83;20.70;;;;;;;-4.85;71.72;98883.55;124653;1115;23113;-79
2021/03/09 04:58:45;;;;;;;47.20;19.17;;;;;;;-4.84;71.58;98879.91;124743;1114;23089;-79
2021/03/09 05:01:12;;;;;;;51.97;21.80;;;;;;;-4.84;71.45;98874.59;124691;1115;27011;-80
2021/03/09 05:03:39;;;;;;;57.47;23.87;;;;;;;-4.83;70.93;98881.59;124672;1115;23046;-80
2021/03/09 05:06:06;;;;;;;66.50;23.95;;;;;;;-4.81;70.98;98876.15;124676;1115;24787;-80
2021/03/09 05:08:32;;;;;;;79.57;25.23;;;;;;;-4.80;71.03;98880.47;124679;1114;23055;-79
2021/03/09 05:10:59;;;;;;;66.60;26.43;;;;;;;-4.79;71.06;98882.16;124685;1115;23102;-79
2021/03/09 05:13:25;;;;;;;56.70;25.15;;;;;;;-4.78;70.76;98878.51;124696;1116;27819;-80
2021/03/09 05:15:52;;;;;;;69.95;25.90;;;;;;;-4.75;70.90;98888.04;124695;1115;24299;-79
2021/03/09 05:18:19;;;;;;;67.77;26.07;;;;;;;-4.73;71.12;98886.08;124740;1115;26466;-80
2021/03/09 05:20:45;;;;;;;68.63;26.43;;;;;;;-4.71;71.23;98884.12;124744;1115;23038;-79
2021/03/09 05:23:12;;;;;;;64.40;25.47;;;;;;;-4.69;71.08;98888.34;124715;1115;24383;-79
2021/03/09 05:25:39;;;;;;;73.10;25.63;;;;;;;-4.63;71.26;98894.92;124726;1114;23025;-79
2021/03/09 05:28:06;;;;;;;64.17;28.07;;;;;;;-4.54;71.24;98894.08;124714;1116;23037;-79
2021/03/09 05:30:32;;;;;;;65.60;25.50;;;;;;;-4.42;72.08;98885.00;124784;1114;23239;-80
2021/03/09 05:32:59;;;;;;;62.50;23.90;;;;;;;-4.34;71.77;98888.78;124658;1114;23098;-79
2021/03/09 05:35:26;;;;;;;52.00;21.93;;;;;;;-4.27;72.41;98882.76;124686;1114;26422;-80
2021/03/09 05:37:53;;;;;;;56.30;23.80;;;;;;;-4.16;72.16;98884.47;124616;1115;23029;-79
2021/03/09 05:40:21;;;;;;;57.40;22.90;;;;;;;-4.15;71.27;98887.95;124646;1114;23093;-80
2021/03/09 05:42:50;;;;;;;55.00;21.97;;;;;;;-4.15;71.15;98887.95;124665;1115;23112;-79
2021/03/09 05:45:18;;;;;;;58.20;22.10;;;;;;;-4.13;71.30;98888.65;124688;1115;23115;-79
2021/03/09 05:47:44;;;;;;;57.00;23.27;;;;;;;-4.10;70.89;98894.52;124873;1115;23037;-79
2021/03/09 05:50:12;;;;;;;64.50;23.10;;;;;;;-4.06;71.54;98882.61;124726;1115;24383;-79
2021/03/09 05:52:39;;;;;;;60.23;24.53;;;;;;;-4.04;71.38;98890.45;124623;1114;27444;-79
2021/03/09 05:55:08;;;;;;;72.77;28.93;;;;;;;-4.07;71.07;98894.25;124711;1115;24954;-79
2021/03/09 05:57:35;;;;;;;92.78;34.15;;;;;;;-4.15;72.03;98893.27;124756;1115;23046;-79
2021/03/09 06:00:08;;;;;;;93.80;35.33;;;;;;;-4.21;72.01;98892.84;124856;1115;23040;-79
2021/03/09 06:02:41;;;;;;;85.57;33.80;;;;;;;-4.22;72.26;98885.84;124495;1115;26079;-79
2021/03/09 06:05:10;;;;;;;76.40;30.67;;;;;;;-4.18;72.88;98891.72;124783;1114;27556;-80
2021/03/09 06:07:38;;;;;;;86.05;32.35;;;;;;;-4.18;72.85;98891.72;124817;1115;23096;-79
2021/03/09 06:10:06;;;;;;;99.10;37.43;;;;;;;-4.18;73.00;98899.69;124775;1115;26089;-79
2021/03/09 06:12:33;;;;;;;94.45;35.45;;;;;;;-4.22;72.40;98899.13;124755;1114;24674;-79
2021/03/09 06:15:03;;;;;;;93.67;34.80;;;;;;;-4.19;72.36;98898.03;124843;1115;23087;-79
2021/03/09 06:17:35;;;;;;;85.80;32.53;;;;;;;-4.12;72.95;98906.30;124656;1115;26421;-79
2021/03/09 06:20:03;;;;;;;91.43;35.40;;;;;;;-4.10;72.41;98907.83;124680;1115;23092;-80
2021/03/09 06:22:50;;;;;;;66.87;28.67;;;;;;;-4.13;73.50;98912.58;124682;1115;23170;-80
2021/03/09 06:25:27;;;;;;;71.27;27.80;;;;;;;-4.05;74.05;98908.24;124811;1115;23027;-79
2021/03/09 06:28:00;;;;;;;61.97;27.23;;;;;;;-4.04;73.34;98920.58;124761;1115;23106;-80
2021/03/09 06:30:30;;;;;;;62.80;25.80;;;;;;;-4.02;73.20;98918.61;124809;1115;23107;-80
2021/03/09 06:32:57;;;;;;;68.73;26.80;;;;;;;-3.95;72.78;98918.86;124857;1114;23096;-79
2021/03/09 06:35:37;;;;;;;59.13;23.93;;;;;;;-3.87;73.27;98929.65;124826;1115;23090;-79
2021/03/09 06:38:24;;;;;;;52.10;22.60;;;;;;;-3.77;72.75;98932.31;124638;1115;23247;-79
2021/03/09 06:41:11;;;;;;;49.43;20.37;;;;;;;-3.77;72.24;98931.45;124843;1115;23105;-79
2021/03/09 06:43:40;;;;;;;50.07;19.90;;;;;;;-3.78;72.08;98938.61;124695;1115;23070;-80
2021/03/09 06:46:10;;;;;;;51.08;22.62;;;;;;;-3.82;72.38;98934.56;124626;1115;23035;-79
2021/03/09 06:48:41;;;;;;;55.43;22.87;;;;;;;-3.78;72.90;98941.27;124681;1114;23249;-80
2021/03/09 06:51:25;;;;;;;63.27;22.93;;;;;;;-3.64;72.34;98940.00;124642;1113;26431;-80
2021/03/09 06:54:16;;;;;;;55.57;21.83;;;;;;;-3.48;72.59;98937.58;124742;1114;23037;-82
2021/03/09 06:56:45;;;;;;;60.57;24.30;;;;;;;-3.30;72.20;98936.83;124388;1115;23094;-81
2021/03/09 06:59:20;;;;;;;48.52;22.52;;;;;;;-3.17;72.13;98942.70;124535;1115;26453;-81
2021/03/09 07:02:17;;;;;;;47.67;21.60;;;;;;;-3.05;71.80;98938.00;125212;1112;33524;-80
2021/03/09 07:04:46;;;;;;;54.80;23.10;;;;;;;-2.94;72.02;98945.83;124583;1112;27453;-80
2021/03/09 07:07:41;;;;;;;56.70;25.15;;;;;;;-2.82;71.91;98941.13;124677;1112;23130;-82
2021/03/09 07:10:20;;;;;;;64.45;27.35;;;;;;;-2.73;72.36;98942.07;124817;1112;23091;-80
2021/03/09 07:12:48;;;;;;;72.25;29.90;;;;;;;-2.64;70.92;98941.17;124928;1111;23027;-80
2021/03/09 07:15:20;;;;;;;81.10;31.40;;;;;;;-2.55;71.45;98936.78;124957;1115;23046;-80
2021/03/09 07:17:51;;;;;;;64.03;26.20;;;;;;;-2.46;70.78;98945.71;124662;1112;24779;-82
2021/03/09 07:20:19;;;;;;;60.90;24.60;;;;;;;-2.39;71.18;98942.31;124429;1112;23096;-83
2021/03/09 07:22:46;;;;;;;47.27;21.20;;;;;;;-2.34;70.72;98945.38;124423;1116;23123;-81
2021/03/09 07:25:16;;;;;;;57.70;22.80;;;;;;;-2.29;69.04;98934.23;124424;1112;23043;-83
2021/03/09 07:27:50;;;;;;;;;;;;;;;-2.20;70.01;98945.83;124493;1112;23038;-84
2021/03/09 07:30:20;;;;;;;53.63;23.77;;;;;;;-2.16;69.00;98945.39;124361;1112;23933;-82
2021/03/09 07:32:47;;;;;;;;;;;;;;;-2.10;69.49;98939.43;125325;1112;23033;-80
2021/03/09 07:35:15;;;;;;;66.95;28.60;;;;;;;-2.02;68.90;98948.50;125796;1113;21617;-80
2021/03/09 07:37:42;;;;;;;63.75;27.90;;;;;;;-1.93;68.40;98942.23;124971;1115;28043;-84
2021/03/09 07:40:13;;;;;;;70.97;32.80;;;;;;;-1.83;69.19;98936.84;124443;1116;23040;-84
2021/03/09 07:42:41;;;;;;;62.53;31.77;;;;;;;-1.71;69.34;98951.63;124409;1116;23046;-85
2021/03/09 07:45:23;;;;;;;83.77;36.13;;;;;;;-1.61;68.94;98951.52;124480;1116;23113;-82
2021/03/09 07:47:52;;;;;;;75.57;33.90;;;;;;;-1.49;69.02;98944.94;124366;1116;23247;-83
2021/03/09 07:50:21;;;;;;;72.77;32.70;;;;;;;-1.44;67.93;98945.31;124446;1116;23239;-84
2021/03/09 07:53:15;;;;;;;71.23;32.20;;;;;;;-1.40;68.26;98944.03;124417;1116;23169;-83
2021/03/09 07:55:44;;;;;;;77.23;35.63;;;;;;;-1.33;67.36;98949.56;124390;1115;23085;-85
2021/03/09 07:58:27;;;;;;;66.97;31.67;;;;;;;-1.24;68.06;98945.11;124345;1116;23050;-86
2021/03/09 08:01:05;;;;;;;76.33;34.77;;;;;;;-1.11;67.74;98939.36;124435;1116;24383;-81
2021/03/09 08:03:33;;;;;;;59.85;28.50;;;;;;;-1.00;67.65;98939.08;124598;1116;26421;-80
2021/03/09 08:06:19;;;;;;;72.67;31.67;;;;;;;-0.91;67.23;98948.81;124589;1114;23053;-83
2021/03/09 08:08:50;;;;;;;68.03;30.60;;;;;;;-0.80;66.68;98947.69;124496;1115;23102;-82
2021/03/09 08:11:22;;;;;;;69.47;31.90;;;;;;;-0.76;66.17;98941.05;124440;1113;23340;-84
2021/03/09 08:14:02;;;;;;;57.13;28.23;;;;;;;-0.71;66.49;98936.02;124392;1112;23107;-83
2021/03/09 08:16:33;;;;;;;69.30;28.17;;;;;;;-0.61;65.91;98939.41;124611;1112;24401;-82
2021/03/09 08:19:33;;;;;;;68.50;28.60;;;;;;;-0.51;66.42;98933.95;124409;1113;23036;-82
2021/03/09 08:22:01;;;;;;;55.47;26.67;;;;;;;-0.40;65.39;98930.12;124572;1113;27322;-82
2021/03/09 08:24:45;;;;;;;46.43;21.73;;;;;;;-0.31;65.51;98936.34;124358;1110;27377;-83
2021/03/09 08:27:36;;;;;;;64.17;28.40;;;;;;;-0.24;65.45;98932.84;124547;1113;23025;-86
2021/03/09 08:30:06;;;;;;;58.20;27.57;;;;;;;-0.14;63.64;98934.52;124488;1112;23047;-81
2021/03/09 08:32:35;;;;;;;58.90;24.63;;;;;;;-0.06;64.49;98923.84;124561;1112;23242;-83
2021/03/09 08:35:11;;;;;;;44.93;20.48;;;;;;;0.03;64.00;98928.20;124587;1113;23092;-82
2021/03/09 08:37:49;;;;;;;51.53;22.63;;;;;;;0.07;63.36;98926.87;124443;1113;24780;-86
2021/03/09 08:40:21;;;;;;;47.70;22.80;;;;;;;0.16;63.05;98920.52;124434;1113;23033;-83
2021/03/09 08:43:00;;;;;;;56.45;26.40;;;;;;;0.23;63.07;98925.20;124450;1113;27430;-84
2021/03/09 08:45:57;;;;;;;40.17;20.60;;;;;;;0.32;61.96;98918.83;124428;1112;27446;-84
2021/03/09 08:48:43;;;;;;;52.63;23.47;;;;;;;0.38;62.35;98916.31;124429;1113;23099;-83
2021/03/09 08:51:42;;;;;;;45.90;22.80;;;;;;;0.48;60.88;98920.66;124429;1113;23116;-86
2021/03/09 08:54:26;;;;;;;;;;;;;;;0.59;62.02;98914.14;124602;1113;23086;-81
2021/03/09 08:56:54;;;;;;;44.30;20.10;;;;;;;0.69;60.49;98914.77;124561;1115;21606;-85
2021/03/09 08:59:24;;;;;;;28.90;15.50;;;;;;;0.80;60.02;98909.08;124488;1115;26456;-85
2021/03/09 09:01:53;;;;;;;37.07;18.47;;;;;;;0.87;58.37;98899.34;124453;1113;24674;-83
2021/03/09 09:04:20;;;;;;;25.03;12.63;;;;;;;0.93;57.96;98904.00;124412;1113;23093;-86
2021/03/09 09:06:48;;;;;;;17.00;8.00;;;;;;;1.04;57.86;98905.47;124602;1112;23096;-83
2021/03/09 09:09:30;;;;;;;18.03;8.23;;;;;;;1.09;57.46;98902.28;124884;1112;22956;-81
2021/03/09 09:12:18;;;;;;;19.17;9.80;;;;;;;1.15;56.60;98909.63;124773;1112;23210;-84
2021/03/09 09:14:59;;;;;;;38.87;17.53;;;;;;;1.25;57.87;98902.20;124645;1112;23029;-85
2021/03/09 09:17:28;;;;;;;31.23;16.53;;;;;;;1.33;56.81;98893.31;124410;1112;23119;-82
2021/03/09 09:20:01;;;;;;;35.43;15.50;;;;;;;1.42;56.89;98902.98;124453;1112;23050;-81
2021/03/09 09:22:28;;;;;;;35.25;16.70;;;;;;;1.52;56.51;98897.38;124422;1112;23090;-82
2021/03/09 09:25:05;;;;;;;34.05;17.70;;;;;;;1.70;56.83;98897.97;124475;1112;23269;-84
2021/03/09 09:27:42;;;;;;;32.30;16.63;;;;;;;1.85;56.32;98903.40;124470;1112;26421;-81
2021/03/09 09:30:13;;;;;;;23.77;11.83;;;;;;;2.03;56.06;98896.91;124578;1112;23251;-81
2021/03/09 09:32:59;;;;;;;28.15;13.20;;;;;;;2.19;54.79;98888.71;124469;1112;23031;-82
2021/03/09 09:35:36;;;;;;;25.50;11.03;;;;;;;2.36;54.68;98894.80;124612;1111;24677;-83
2021/03/09 09:38:11;;;;;;;27.70;14.10;;;;;;;2.52;53.99;98885.75;124596;1112;23090;-85
2021/03/09 09:40:46;;;;;;;25.23;12.80;;;;;;;2.66;53.25;98884.11;124473;1112;23040;-83
2021/03/09 09:43:24;;;;;;;22.67;11.47;;;;;;;2.85;52.86;98882.71;124436;1112;23114;-85
2021/03/09 09:45:56;;;;;;;20.85;11.25;;;;;;;2.95;51.97;98880.59;124569;1112;23103;-82
2021/03/09 09:48:28;;;;;;;19.15;10.20;;;;;;;2.93;51.66;98888.02;124581;1112;23107;-83
2021/03/09 09:50:58;;;;;;;20.17;10.03;;;;;;;2.79;50.35;98886.16;124540;1112;23042;-81
2021/03/09 09:53:39;;;;;;;21.45;10.10;;;;;;;2.68;50.50;98889.30;124405;1112;27691;-81
2021/03/09 09:56:12;;;;;;;17.05;7.65;;;;;;;2.57;50.23;98890.59;124371;1113;23099;-82
2021/03/09 09:58:50;;;;;;;17.43;8.87;;;;;;;2.40;49.97;98890.72;124394;1112;23239;-83
2021/03/09 10:01:20;;;;;;;19.33;8.70;;;;;;;2.31;49.67;98886.44;124445;1112;24680;-85
2021/03/09 10:04:01;;;;;;;20.63;8.93;;;;;;;2.20;50.24;98893.08;124606;1111;23163;-80
2021/03/09 10:06:30;;;;;;;23.87;11.10;;;;;;;2.07;50.59;98891.01;124496;1112;23037;-83
2021/03/09 10:09:22;;;;;;;24.07;11.13;;;;;;;2.01;50.63;98878.28;124665;1112;27329;-82
2021/03/09 10:11:53;;;;;;;21.80;11.17;;;;;;;1.95;50.46;98878.16;124632;1111;23093;-82
2021/03/09 10:14:22;;;;;;;19.07;9.53;;;;;;;1.92;50.73;98884.73;124450;1112;23033;-82
2021/03/09 10:16:50;;;;;;;15.32;7.45;;;;;;;1.90;49.86;98876.02;124600;1111;23129;-82
2021/03/09 10:19:20;;;;;;;13.33;6.73;;;;;;;1.88;48.72;98878.88;124647;1112;26088;-81
2021/03/09 10:21:54;;;;;;;14.00;7.40;;;;;;;1.90;47.80;98876.84;124579;1112;23106;-81
2021/03/09 10:24:29;;;;;;;14.60;7.20;;;;;;;1.92;47.36;98879.36;124388;1112;23046;-83
2021/03/09 10:26:57;;;;;;;12.40;5.50;;;;;;;1.97;46.81;98878.84;124469;1112;23103;-85
2021/03/09 10:29:26;;;;;;;12.73;6.20;;;;;;;1.96;45.70;98877.15;124394;1112;23034;-86
2021/03/09 10:32:02;;;;;;;12.65;7.53;;;;;;;1.96;46.06;98866.41;124470;1112;24673;-83
2021/03/09 10:34:37;;;;;;;10.13;4.90;;;;;;;1.91;46.54;98866.94;124610;1112;23112;-86
2021/03/09 10:37:06;;;;;;;15.70;6.27;;;;;;;1.87;47.09;98861.09;124514;1112;25154;-82
2021/03/09 10:39:36;;;;;;;11.28;5.12;;;;;;;1.90;45.48;98867.97;124465;1112;23115;-81
2021/03/09 10:42:40;;;;;;;8.18;3.92;;;;;;;1.93;45.05;98874.81;125033;1111;23030;-81
2021/03/09 10:45:17;;;;;;;13.03;7.03;;;;;;;1.92;45.05;98862.42;124891;1112;23046;-81
2021/03/09 10:47:49;;;;;;;16.50;8.20;;;;;;;1.94;46.54;98868.44;124918;1112;23090;-81
2021/03/09 10:50:19;;;;;;;23.27;10.30;;;;;;;1.96;47.73;98869.92;125022;1112;23002;-81
2021/03/09 10:52:45;;;;;;;18.02;9.35;;;;;;;1.98;48.19;98865.20;125071;1112;26415;-80
2021/03/09 10:55:13;;;;;;;28.60;12.00;;;;;;;1.97;49.00;98868.09;124932;1112;22906;-81
2021/03/09 10:57:41;;;;;;;27.10;12.97;;;;;;;1.98;50.00;98870.57;124840;1112;23034;-80
2021/03/09 11:00:11;;;;;;;27.50;12.93;;;;;;;2.00;50.17;98859.66;124892;1111;23109;-81
2021/03/09 11:02:37;;;;;;;28.33;13.37;;;;;;;1.98;50.60;98859.00;124897;1112;23034;-81
2021/03/09 11:05:05;;;;;;;24.93;12.07;;;;;;;1.99;50.16;98856.14;124873;1112;23295;-81
2021/03/09 11:07:32;;;;;;;25.63;11.67;;;;;;;1.99;50.18;98860.69;124904;1112;23094;-80
2021/03/09 11:09:59;;;;;;;25.53;10.83;;;;;;;2.04;50.28;98855.61;124863;1112;23037;-80
2021/03/09 11:12:26;;;;;;;23.47;11.00;;;;;;;2.09;49.70;98856.73;124872;1112;24638;-80
2021/03/09 11:14:53;;;;;;;22.20;9.60;;;;;;;2.16;49.69;98845.25;125114;1111;23096;-79
2021/03/09 11:17:20;;;;;;;19.57;9.57;;;;;;;2.24;49.70;98848.70;124949;1112;23032;-80
2021/03/09 11:19:47;;;;;;;18.50;9.93;;;;;;;2.34;49.84;98845.77;125087;1112;23436;-79
2021/03/09 11:22:14;;;;;;;19.47;9.83;;;;;;;2.47;48.87;98845.96;125120;1111;23179;-79
2021/03/09 11:24:41;;;;;;;17.70;9.93;;;;;;;2.62;48.96;98846.00;125122;1112;23046;-79
2021/03/09 11:27:09;;;;;;;20.20;10.00;;;;;;;2.81;48.58;98839.22;125006;1112;23330;-79
2021/03/09 11:29:37;;;;;;;21.60;10.53;;;;;;;3.02;48.71;98843.02;124905;1112;23091;-79
2021/03/09 11:36:05;;;;;;;15.83;8.77;;;;;;;3.68;46.72;98836.75;125081;1110;23106;-84